Wednesday, August 24, 2016
02:31 UTC
  |  Log In   |  Register Free
Airport Search:

Seattle-Tacoma International Airport
(KSEA)

FAA data valid effective May 26 2016 - Jul 21 2016 (unless otherwise noted).

 
 
 
 
 
 
 
 
 
 
 
 
 
 
Current Aviation Weather for KSEA

Weather Summary


The most recent METAR observation for SEA was updated at: 13:07 UTC
METAR for SEA is not available. Closest METAR is for
METAR

METAR KSEA 240153Z 35010KT 10SM FEW250 25/10 A3016 RMK AO2 SLP218 T02500100

METAR KSEA 240053Z 34013KT 10SM FEW060 FEW250 26/10 A3017 RMK AO2 SLP220 T02560100

METAR KSEA 232353Z 36011KT 10SM FEW060 FEW250 26/10 A3017 RMK AO2 SLP221 T02610100 10267 20206 56009

METAR KBFI 240153Z 30012KT 10SM FEW250 26/12 A3015 RMK AO2 SLP207 T02610122 $

METAR KGRF 240158Z 02008KT 10SM CLR 25/11 A3014 RMK AO2 SLP210 T02530106 $

METAR KPAE 240153Z 35008KT 10SM CLR 22/10 A3017 RMK AO2 SLP216 T02220100

TAF for SEA is not available.
TAF

KSEA - TAF KSEA 232320Z 2400/2506 33010KT P6SM FEW060 FEW250

KSEA - FM240500 02006KT P6SM SKC

KSEA - FM241800 36010KT P6SM SKC =

KBFI - TAF KBFI 232320Z 2400/2424 32008KT P6SM FEW060 FEW250

KBFI - FM240400 00000KT P6SM SKC

KBFI - FM241900 33010KT P6SM SKC =

KTCM - TAF KTCM 232102Z 2321/2503 02012G18KT 9999 SKC QNH3015INS

KTCM - BECMG 2323/2324 02009KT 9999 SKC QNH3015INS

KTCM - BECMG 2416/2417 36012KT 9999 SKC QNH3024INS

KTCM - BECMG 2423/2424 02012KT 9999 SKC QNH3015INS TX26/2421Z TN12/2413Z =

KGRF - TAF KGRF 232102Z 2321/2503 02012G18KT 9999 SKC QNH3015INS

KGRF - BECMG 2323/2324 02009KT 9999 SKC QNH3015INS

KGRF - BECMG 2416/2417 36012KT 9999 SKC QNH3024INS

KGRF - BECMG 2423/2424 02012KT 9999 SKC QNH3015INS TX26/2421Z TN12/2413Z =

KPAE - TAF KPAE 232320Z 2400/2424 35008KT P6SM FEW060 FEW250

KPAE - FM240500 02004KT P6SM SKC

KPAE - FM241800 35008KT P6SM SKC =

GlobalAir.com is loading additional information.
 Current Weather at SEA
78.0 F° (25.6 C°)

North winds at 15.0 mph
Pressure:
30.17 in
Humidity:
37%
Wind:
North at 15.0 mph
Dew Point:
50.0 F° (10.0 C°)
Visibility:
10.00 mi
SEA NOAA Radar




Find All Airport Services Find A Hotel Find A Rental Car Find A Golf Course Find A Restaurant $100 Hamburger



Airport Weather Forecast for KSEA

Translated METAR for KSEA (0153 UTC)
METAR:
KSEA 240153Z Seattle-Tacoma International, Seattle, WA (KSEA). Aug 24, 0153Z. Wind from 350° at 10 knots, 10 statute miles visibility, Few clouds at 25,000 feet, Temperature 25°C, Dewpoint 10°C, Altimeter is 30.16. Remarks: automated station with precipitation discriminator sea level pressure 1021.8 hectopascals hourly temp 25.0°C dewpoint 10.0°C
Conditions at:
KSEA (Seattle-Tacoma Intl, WA) observed 0153 UTC 23 August 2016
Temperature:
78.0 F° (25.6 C°)
Dewpoint:
not reported - refer to area weather report
Pressure:
30.17 Hg
Winds:
not reported
Visibility:
10.00
Ceiling:
at least 12,000 feet AGL
Clouds:
not reported - refer to area weather report
Remarks:

Translated TAF for TAF for SEA is not available. Refer to local area forecast.
FBO's on the Field
FBO Company Facility Photos Services Transportation Aviation Fuel Prices: Prices include tax
Catering Weather Repair Courtesy Rental Type 100LL JetA JetA+ MOGAS 8087
 
Aircraft Service Intl.

This FBO has not yet been rated
FS:Independent
Last Updated: Jul-20
Login to update fuel prices
SS:
Contact Aircraft Service Intl.More FBO Information
 
Add another FBO Facility Photos Catering Weather Repair Courtesy Rental Type 100LL JetA JetA+ MOGAS 8087
Services Transportation Aviation Fuel Prices: Prices include tax


model-print
model-print
model-print
model-print